createdAt,value
2022-07-31T00:02:08.275Z,47.60
2022-07-31T00:04:35.191Z,47.80
2022-07-31T00:07:02.397Z,48.00
2022-07-31T00:09:53.043Z,47.90
2022-07-31T00:12:17.321Z,47.70
2022-07-31T00:14:44.161Z,47.60
2022-07-31T00:17:10.987Z,47.60
2022-07-31T00:19:37.736Z,47.70
2022-07-31T00:22:04.801Z,48.00
2022-07-31T00:24:31.596Z,48.30
2022-07-31T00:26:58.343Z,48.80
2022-07-31T00:29:25.364Z,48.60
2022-07-31T00:31:52.124Z,49.40
2022-07-31T00:34:18.874Z,49.90
2022-07-31T00:36:45.532Z,50.00
2022-07-31T00:39:12.190Z,49.30
2022-07-31T00:41:43.964Z,48.90
2022-07-31T00:44:12.517Z,49.00
2022-07-31T00:46:40.741Z,48.80
2022-07-31T00:49:10.095Z,48.70
2022-07-31T00:51:38.209Z,48.50
2022-07-31T00:54:08.753Z,48.10
2022-07-31T00:56:35.832Z,47.80
2022-07-31T00:59:02.679Z,48.10
2022-07-31T01:01:30.696Z,49.10
2022-07-31T01:03:57.730Z,48.90
2022-07-31T01:06:24.449Z,48.60
2022-07-31T01:08:51.267Z,49.10
2022-07-31T01:11:41.054Z,49.40
2022-07-31T01:14:09.423Z,49.20
2022-07-31T01:16:41.171Z,48.70
2022-07-31T01:19:42.326Z,48.30
2022-07-31T01:22:32.976Z,47.80
2022-07-31T01:25:43.614Z,47.90
2022-07-31T01:28:10.251Z,47.90
2022-07-31T01:30:52.941Z,48.00
2022-07-31T01:33:38.580Z,48.00
2022-07-31T01:36:17.274Z,48.40
2022-07-31T01:38:48.629Z,48.60
2022-07-31T01:41:17.704Z,49.10
2022-07-31T01:43:48.821Z,48.70
2022-07-31T01:46:18.824Z,49.60
2022-07-31T01:48:48.363Z,49.20
2022-07-31T01:51:17.131Z,49.40
2022-07-31T01:53:46.839Z,49.20
2022-07-31T01:56:18.615Z,48.80
2022-07-31T01:58:46.998Z,48.60
2022-07-31T02:01:15.080Z,48.50
2022-07-31T02:03:45.565Z,49.30
2022-07-31T02:06:15.122Z,49.40
2022-07-31T02:08:45.824Z,49.80
2022-07-31T02:11:15.305Z,51.10
2022-07-31T02:13:43.087Z,49.70
2022-07-31T02:16:10.076Z,50.30
2022-07-31T02:18:37.530Z,50.40
2022-07-31T02:21:04.204Z,50.30
2022-07-31T02:23:30.944Z,49.90
2022-07-31T02:25:58.618Z,51.30
2022-07-31T02:28:26.875Z,51.30
2022-07-31T02:30:53.992Z,51.20
2022-07-31T02:33:24.574Z,51.50
2022-07-31T02:35:55.207Z,51.80
2022-07-31T02:38:26.479Z,52.20
2022-07-31T02:40:56.394Z,52.70
2022-07-31T02:43:25.140Z,52.30
2022-07-31T02:45:52.220Z,51.80
2022-07-31T02:48:19.124Z,51.60
2022-07-31T02:50:46.062Z,51.10
2022-07-31T02:53:12.917Z,50.90
2022-07-31T02:55:43.337Z,51.20
2022-07-31T02:58:10.000Z,51.60
2022-07-31T03:00:36.686Z,52.50
2022-07-31T03:03:04.614Z,51.80
2022-07-31T03:05:31.394Z,51.50
2022-07-31T03:07:58.136Z,51.30
2022-07-31T03:10:24.944Z,50.60
2022-07-31T03:12:54.349Z,50.40
2022-07-31T03:15:25.524Z,50.30
2022-07-31T03:17:54.119Z,50.70
2022-07-31T03:20:22.210Z,50.70
2022-07-31T03:22:49.652Z,51.60
2022-07-31T03:25:21.353Z,50.90
2022-07-31T03:27:52.488Z,50.80
2022-07-31T03:30:27.080Z,50.80
2022-07-31T03:32:55.033Z,50.10
2022-07-31T03:35:22.295Z,49.70
2022-07-31T03:37:49.503Z,49.20
2022-07-31T03:40:16.220Z,49.00
2022-07-31T03:42:43.619Z,49.20
2022-07-31T03:45:12.055Z,50.30
2022-07-31T03:47:39.181Z,51.10
2022-07-31T03:50:07.459Z,52.00
2022-07-31T03:52:35.913Z,52.40
2022-07-31T03:55:03.034Z,51.80
2022-07-31T03:57:31.310Z,51.80
2022-07-31T04:00:02.512Z,51.60
2022-07-31T04:02:31.649Z,52.10
2022-07-31T04:04:59.340Z,52.10
2022-07-31T04:07:26.755Z,51.80
2022-07-31T04:09:54.023Z,52.10
2022-07-31T04:12:20.832Z,52.60
2022-07-31T04:14:47.635Z,52.70
2022-07-31T04:17:14.427Z,52.90
2022-07-31T04:19:41.432Z,52.40
2022-07-31T04:22:08.787Z,52.80
2022-07-31T04:24:35.827Z,52.60
2022-07-31T04:27:08.127Z,53.40
2022-07-31T04:29:37.751Z,53.40
2022-07-31T04:32:05.109Z,52.80
2022-07-31T04:34:32.431Z,52.40
2022-07-31T04:36:59.118Z,52.90
2022-07-31T04:39:25.804Z,52.90
2022-07-31T04:41:52.618Z,53.40
2022-07-31T04:44:19.414Z,54.10
2022-07-31T04:46:46.209Z,54.20
2022-07-31T04:49:15.095Z,54.10
2022-07-31T04:51:43.328Z,53.30
2022-07-31T04:54:11.080Z,52.70
2022-07-31T04:56:41.952Z,52.80
2022-07-31T04:59:12.081Z,52.70
2022-07-31T05:01:40.053Z,52.50
2022-07-31T05:04:08.323Z,52.80
2022-07-31T05:06:46.378Z,53.20
2022-07-31T05:09:19.610Z,52.50
2022-07-31T05:11:51.679Z,52.60
2022-07-31T05:14:19.905Z,53.20
2022-07-31T05:16:47.610Z,52.80
2022-07-31T05:19:15.504Z,53.50
2022-07-31T05:21:53.245Z,54.30
2022-07-31T05:24:22.549Z,54.60
2022-07-31T05:26:59.900Z,54.60
2022-07-31T05:29:26.840Z,54.90
2022-07-31T05:31:59.617Z,54.50
2022-07-31T05:34:30.117Z,53.70
2022-07-31T05:36:58.282Z,53.90
2022-07-31T05:39:25.210Z,53.70
2022-07-31T05:41:52.771Z,55.40
2022-07-31T05:44:19.777Z,56.70
2022-07-31T05:46:46.589Z,56.40
2022-07-31T05:49:13.479Z,57.30
2022-07-31T05:51:43.861Z,55.70
2022-07-31T05:54:10.716Z,55.50
2022-07-31T05:56:38.431Z,54.70
2022-07-31T05:59:05.111Z,56.00
2022-07-31T06:01:31.840Z,56.30
2022-07-31T06:03:58.582Z,55.60
2022-07-31T06:06:25.921Z,55.20
2022-07-31T06:08:52.661Z,55.40
2022-07-31T06:11:19.330Z,55.70
2022-07-31T06:13:46.042Z,54.80
2022-07-31T06:16:16.294Z,55.10
2022-07-31T06:18:43.203Z,54.70
2022-07-31T06:23:36.986Z,55.20
2022-07-31T06:26:04.162Z,54.50
2022-07-31T06:28:47.616Z,56.80
2022-07-31T06:31:22.753Z,55.00
2022-07-31T06:33:51.008Z,55.00
2022-07-31T06:36:18.400Z,56.50
2022-07-31T06:38:45.894Z,57.00
2022-07-31T06:41:33.033Z,56.60
2022-07-31T06:43:59.709Z,57.50
2022-07-31T06:46:26.390Z,57.60
2022-07-31T06:48:53.189Z,57.30
2022-07-31T06:51:35.250Z,55.90
2022-07-31T06:54:03.334Z,55.50
2022-07-31T06:56:30.636Z,55.90
2022-07-31T06:58:57.671Z,55.50
2022-07-31T07:01:24.383Z,55.90
2022-07-31T07:03:51.281Z,56.80
2022-07-31T07:06:18.036Z,57.10
2022-07-31T07:08:44.975Z,57.30
2022-07-31T07:11:12.503Z,55.60
2022-07-31T07:13:45.046Z,55.00
2022-07-31T07:16:14.610Z,54.80
2022-07-31T07:18:43.055Z,55.80
2022-07-31T07:21:10.412Z,55.20
2022-07-31T07:23:37.274Z,54.00
2022-07-31T07:26:04.514Z,53.20
2022-07-31T07:28:31.571Z,52.80
2022-07-31T07:30:58.802Z,52.80
2022-07-31T07:33:39.917Z,51.40
2022-07-31T07:36:22.376Z,53.40
2022-07-31T07:38:50.537Z,55.50
2022-07-31T07:41:18.449Z,54.50
2022-07-31T07:43:48.607Z,54.90
2022-07-31T07:46:19.081Z,54.70
2022-07-31T07:48:48.448Z,52.40
2022-07-31T07:51:15.281Z,53.90
2022-07-31T07:53:42.069Z,53.90
2022-07-31T07:56:08.743Z,52.50
2022-07-31T07:58:35.419Z,50.60
2022-07-31T08:01:02.201Z,51.30
2022-07-31T08:03:49.839Z,50.80
2022-07-31T08:06:15.696Z,50.90
2022-07-31T08:08:42.541Z,51.90
2022-07-31T08:11:09.211Z,50.70
2022-07-31T08:13:35.912Z,50.70
2022-07-31T08:16:05.488Z,50.50
2022-07-31T08:18:32.195Z,49.50
2022-07-31T08:20:58.948Z,48.90
2022-07-31T08:23:25.803Z,50.10
2022-07-31T08:25:52.619Z,50.40
2022-07-31T08:28:23.935Z,49.90
2022-07-31T08:30:50.776Z,51.00
2022-07-31T08:33:17.511Z,50.00
2022-07-31T08:35:48.723Z,50.20
2022-07-31T08:38:19.554Z,49.70
2022-07-31T08:40:47.068Z,49.40
2022-07-31T08:46:04.840Z,50.10
2022-07-31T08:48:33.415Z,49.60
2022-07-31T08:51:03.458Z,49.70
2022-07-31T08:53:32.935Z,49.70
2022-07-31T08:56:00.295Z,49.60
2022-07-31T08:58:27.096Z,49.30
2022-07-31T09:00:54.035Z,49.40
2022-07-31T09:03:21.032Z,49.10
2022-07-31T09:05:47.763Z,49.00
2022-07-31T09:08:15.210Z,48.80
2022-07-31T09:10:46.335Z,48.90
2022-07-31T09:13:18.081Z,48.60
2022-07-31T09:15:45.169Z,48.90
2022-07-31T09:18:21.867Z,48.60
2022-07-31T09:21:08.813Z,49.30
2022-07-31T09:23:46.133Z,48.30
2022-07-31T09:26:12.911Z,48.10
2022-07-31T09:28:42.060Z,48.90
2022-07-31T09:31:10.560Z,48.20
2022-07-31T09:33:45.152Z,48.00
2022-07-31T09:36:13.438Z,47.90
2022-07-31T09:38:42.373Z,47.80
2022-07-31T09:41:23.168Z,48.40
2022-07-31T09:44:10.265Z,47.50
2022-07-31T09:46:46.976Z,47.40
2022-07-31T09:49:14.461Z,46.90
2022-07-31T09:51:43.016Z,47.20
2022-07-31T09:54:21.107Z,47.20
2022-07-31T09:56:49.754Z,47.20
2022-07-31T09:59:16.948Z,47.40
2022-07-31T10:01:46.019Z,47.00
2022-07-31T10:04:13.148Z,47.10
2022-07-31T10:06:41.611Z,47.20
2022-07-31T10:09:09.315Z,47.60
2022-07-31T10:11:39.494Z,47.30
2022-07-31T10:14:15.028Z,47.00
2022-07-31T10:16:43.781Z,46.90
2022-07-31T10:19:13.459Z,46.70
2022-07-31T10:21:54.558Z,46.70
2022-07-31T10:24:27.877Z,46.20
2022-07-31T10:27:01.232Z,46.00
2022-07-31T10:29:32.862Z,46.00
2022-07-31T10:32:00.514Z,46.10
2022-07-31T10:34:28.131Z,45.70
2022-07-31T10:37:02.322Z,45.60
2022-07-31T10:39:41.992Z,45.10
2022-07-31T10:42:29.895Z,44.70
2022-07-31T10:45:11.021Z,44.50
2022-07-31T10:47:38.353Z,44.90
2022-07-31T10:50:05.767Z,44.00
2022-07-31T10:52:35.016Z,43.70
2022-07-31T10:55:02.203Z,43.60
2022-07-31T10:57:32.243Z,43.50
2022-07-31T11:00:13.451Z,43.10
2022-07-31T11:02:40.614Z,43.50
2022-07-31T11:05:09.490Z,43.60
2022-07-31T11:07:36.863Z,43.10
2022-07-31T11:10:13.679Z,43.10
2022-07-31T11:12:40.459Z,43.10
2022-07-31T11:15:24.891Z,42.90
2022-07-31T11:18:22.651Z,42.90
2022-07-31T11:20:39.471Z,43.10
2022-07-31T11:23:11.244Z,43.10
2022-07-31T11:25:38.407Z,43.50
2022-07-31T11:28:27.285Z,43.50
2022-07-31T11:31:01.082Z,43.70
2022-07-31T11:33:42.187Z,43.50
2022-07-31T11:36:15.941Z,43.30
2022-07-31T11:38:46.726Z,43.20
2022-07-31T11:41:15.100Z,43.20
2022-07-31T11:43:48.277Z,42.80
2022-07-31T11:46:30.155Z,43.20
2022-07-31T11:48:57.744Z,42.60
2022-07-31T11:51:25.705Z,41.90
2022-07-31T11:53:57.001Z,43.20
2022-07-31T11:56:26.690Z,44.00
2022-07-31T11:58:56.444Z,42.50
2022-07-31T12:01:28.894Z,42.10
2022-07-31T12:03:57.676Z,41.90
2022-07-31T12:06:34.859Z,41.50
2022-07-31T12:09:03.716Z,40.80
2022-07-31T12:11:30.984Z,41.00
2022-07-31T12:13:59.358Z,40.50
2022-07-31T12:16:26.220Z,40.30
2022-07-31T12:19:00.732Z,40.10
2022-07-31T12:21:36.277Z,40.10
2022-07-31T12:24:11.107Z,39.70
2022-07-31T12:26:37.918Z,39.80
2022-07-31T12:29:05.972Z,40.10
2022-07-31T12:31:50.556Z,40.40
2022-07-31T12:34:40.670Z,40.30
2022-07-31T12:37:22.412Z,40.30
2022-07-31T12:40:00.102Z,40.30
2022-07-31T12:42:30.750Z,40.30
2022-07-31T12:45:18.017Z,40.00
2022-07-31T12:47:51.273Z,39.80
2022-07-31T12:50:20.080Z,40.00
2022-07-31T12:52:46.787Z,40.40
2022-07-31T12:55:13.538Z,40.00
2022-07-31T12:57:50.444Z,39.70
2022-07-31T13:00:19.378Z,39.70
2022-07-31T13:02:46.217Z,39.60
2022-07-31T13:05:12.936Z,40.20
2022-07-31T13:07:39.689Z,40.00
2022-07-31T13:10:19.981Z,40.10
2022-07-31T13:12:51.724Z,39.00
2022-07-31T13:15:21.108Z,38.60
2022-07-31T13:17:50.842Z,38.70
2022-07-31T13:20:19.122Z,38.40
2022-07-31T13:22:46.225Z,38.80
2022-07-31T13:25:13.151Z,38.80
2022-07-31T13:27:41.459Z,38.90
2022-07-31T13:30:09.613Z,38.60
2022-07-31T13:32:36.730Z,38.90
2022-07-31T13:35:26.465Z,39.10
2022-07-31T13:37:50.794Z,39.00
2022-07-31T13:40:18.985Z,39.40
2022-07-31T13:42:45.709Z,38.20
2022-07-31T13:45:12.378Z,37.60
2022-07-31T13:47:50.386Z,38.10
2022-07-31T13:50:18.898Z,37.80
2022-07-31T13:52:45.616Z,38.10
2022-07-31T13:55:12.398Z,37.60
2022-07-31T13:57:39.060Z,36.90
2022-07-31T14:00:06.628Z,36.60
2022-07-31T14:02:33.424Z,36.20
2022-07-31T14:05:00.240Z,35.80
2022-07-31T14:07:45.016Z,35.80
2022-07-31T14:10:19.883Z,36.20
2022-07-31T14:12:47.049Z,36.20
2022-07-31T14:15:13.928Z,35.60
2022-07-31T14:17:40.636Z,35.70
2022-07-31T14:20:07.824Z,36.10
2022-07-31T14:22:34.493Z,36.00
2022-07-31T14:25:01.227Z,35.80
2022-07-31T14:27:27.917Z,35.80
2022-07-31T14:29:54.795Z,34.90
2022-07-31T14:32:22.286Z,34.80
2022-07-31T14:34:50.190Z,35.00
2022-07-31T14:37:17.072Z,35.20
2022-07-31T14:39:43.982Z,35.50
2022-07-31T14:42:11.700Z,35.40
2022-07-31T14:44:41.870Z,35.60
2022-07-31T14:47:10.038Z,35.90
2022-07-31T14:50:07.403Z,36.10
2022-07-31T14:52:23.758Z,35.90
2022-07-31T14:54:50.577Z,35.90
2022-07-31T14:57:20.201Z,36.30
2022-07-31T14:59:50.150Z,36.60
2022-07-31T15:02:21.816Z,36.50
2022-07-31T15:04:49.666Z,36.50
2022-07-31T15:07:34.758Z,36.70
2022-07-31T15:10:04.745Z,36.70
2022-07-31T15:12:31.636Z,36.80
2022-07-31T15:14:58.315Z,36.70
2022-07-31T15:17:25.000Z,36.70
2022-07-31T15:19:51.804Z,36.90
2022-07-31T15:22:19.281Z,37.10
2022-07-31T15:24:49.576Z,37.00
2022-07-31T15:27:18.135Z,37.10
2022-07-31T15:30:00.614Z,37.20
2022-07-31T15:32:31.848Z,37.50
2022-07-31T15:34:58.537Z,37.70
2022-07-31T15:37:25.277Z,38.50
2022-07-31T15:40:02.112Z,38.10
2022-07-31T15:42:34.519Z,38.10
2022-07-31T15:45:01.281Z,38.50
2022-07-31T15:47:27.997Z,38.50
2022-07-31T15:49:54.798Z,38.60
2022-07-31T15:52:21.496Z,38.80
2022-07-31T15:54:51.543Z,39.10
2022-07-31T15:57:22.525Z,39.40
2022-07-31T15:59:49.942Z,39.50
2022-07-31T16:02:17.173Z,39.50
2022-07-31T16:04:48.630Z,39.80
2022-07-31T16:08:29.793Z,40.00
2022-07-31T16:10:16.139Z,40.00
2022-07-31T16:12:45.838Z,40.40
2022-07-31T16:15:12.802Z,40.80
2022-07-31T16:17:40.296Z,40.70
2022-07-31T16:20:12.773Z,41.00
2022-07-31T16:22:40.878Z,41.00
2022-07-31T16:25:09.903Z,41.10
2022-07-31T16:27:37.544Z,41.30
2022-07-31T16:30:05.605Z,41.70
2022-07-31T16:32:32.824Z,42.20
2022-07-31T16:35:01.303Z,42.40
2022-07-31T16:37:51.016Z,42.50
2022-07-31T16:40:29.683Z,42.50
2022-07-31T16:43:50.444Z,42.60
2022-07-31T16:45:54.635Z,42.60
2022-07-31T16:48:21.728Z,42.40
2022-07-31T16:50:53.392Z,42.40
2022-07-31T16:54:10.014Z,42.50
2022-07-31T16:56:12.891Z,42.50
2022-07-31T16:58:39.653Z,42.50
2022-07-31T17:01:54.070Z,42.90
2022-07-31T17:04:00.164Z,42.40
2022-07-31T17:06:36.941Z,42.30
2022-07-31T17:09:17.019Z,42.20
2022-07-31T17:11:50.117Z,42.10
2022-07-31T17:14:18.814Z,41.80
2022-07-31T17:16:48.284Z,41.50
2022-07-31T17:19:42.301Z,41.40
2022-07-31T17:22:11.767Z,41.40
2022-07-31T17:24:50.059Z,41.40
2022-07-31T17:27:16.823Z,41.50
2022-07-31T17:29:43.536Z,41.40
2022-07-31T17:32:11.104Z,41.60
2022-07-31T17:34:38.466Z,41.30
2022-07-31T17:37:06.930Z,41.30
2022-07-31T17:39:33.935Z,41.20
2022-07-31T17:42:00.696Z,41.20
2022-07-31T17:44:27.552Z,41.30
2022-07-31T17:46:54.796Z,41.20
2022-07-31T17:49:21.547Z,41.40
2022-07-31T17:52:00.010Z,41.40
2022-07-31T17:54:28.555Z,41.70
2022-07-31T17:56:55.294Z,41.90
2022-07-31T17:59:23.012Z,42.10
2022-07-31T18:01:51.491Z,42.30
2022-07-31T18:04:30.635Z,42.40
2022-07-31T18:06:58.844Z,42.40
2022-07-31T18:09:25.684Z,42.60
2022-07-31T18:11:54.514Z,42.80
2022-07-31T18:14:24.371Z,42.90
2022-07-31T18:16:52.020Z,43.10
2022-07-31T18:19:20.031Z,43.10
2022-07-31T18:21:47.188Z,43.60
2022-07-31T18:24:13.860Z,43.80
2022-07-31T18:26:40.704Z,43.80
2022-07-31T18:29:07.378Z,43.90
2022-07-31T18:31:35.892Z,44.10
2022-07-31T18:34:06.868Z,44.50
2022-07-31T18:36:34.422Z,44.40
2022-07-31T18:39:01.672Z,45.00
2022-07-31T18:41:29.546Z,44.60
2022-07-31T18:43:56.682Z,44.50
2022-07-31T18:46:24.662Z,44.40
2022-07-31T18:48:55.537Z,44.70
2022-07-31T18:51:23.834Z,44.80
2022-07-31T18:53:50.732Z,44.80
2022-07-31T18:56:17.617Z,45.10
2022-07-31T18:58:44.639Z,45.40
2022-07-31T19:01:11.634Z,45.60
2022-07-31T19:03:38.401Z,45.70
2022-07-31T19:06:05.424Z,45.80
2022-07-31T19:08:32.184Z,46.00
2022-07-31T19:10:59.375Z,46.20
2022-07-31T19:13:26.370Z,46.20
2022-07-31T19:15:53.253Z,46.40
2022-07-31T19:18:28.283Z,46.50
2022-07-31T19:21:16.628Z,46.60
2022-07-31T19:23:43.448Z,46.90
2022-07-31T19:26:10.152Z,47.20
2022-07-31T19:28:39.441Z,47.00
2022-07-31T19:31:06.415Z,47.00
2022-07-31T19:33:33.227Z,47.20
2022-07-31T19:36:02.231Z,47.40
2022-07-31T19:38:35.555Z,47.50
2022-07-31T19:41:02.351Z,47.90
2022-07-31T19:43:29.697Z,47.90
2022-07-31T19:46:10.741Z,48.30
2022-07-31T19:48:43.885Z,48.40
2022-07-31T19:51:11.257Z,49.20
2022-07-31T19:53:38.111Z,49.30
2022-07-31T19:56:06.339Z,49.30
2022-07-31T19:58:35.157Z,49.10
2022-07-31T20:01:05.797Z,49.50
2022-07-31T20:03:33.234Z,49.40
2022-07-31T20:06:00.929Z,49.20
2022-07-31T20:08:29.654Z,49.30
2022-07-31T20:11:02.862Z,49.40
2022-07-31T20:13:30.452Z,49.70
2022-07-31T20:15:58.014Z,50.00
2022-07-31T20:18:28.813Z,50.10
2022-07-31T20:20:59.560Z,50.70
2022-07-31T20:23:26.925Z,50.90
2022-07-31T20:25:54.049Z,50.90
2022-07-31T20:28:21.579Z,50.90
2022-07-31T20:30:48.563Z,51.20
2022-07-31T20:33:15.580Z,51.70
2022-07-31T20:35:49.232Z,51.60
2022-07-31T20:38:18.043Z,51.70
2022-07-31T20:40:48.065Z,51.60
2022-07-31T20:43:21.301Z,51.80
2022-07-31T20:45:48.457Z,52.20
2022-07-31T20:48:17.811Z,52.10
2022-07-31T20:50:47.940Z,52.10
2022-07-31T20:53:19.403Z,52.70
2022-07-31T20:55:49.652Z,52.60
2022-07-31T20:58:18.075Z,52.80
2022-07-31T21:00:45.474Z,52.80
2022-07-31T21:03:12.312Z,52.60
2022-07-31T21:05:39.156Z,53.10
2022-07-31T21:08:06.339Z,53.30
2022-07-31T21:10:34.194Z,53.70
2022-07-31T21:13:01.057Z,53.70
2022-07-31T21:15:41.808Z,54.00
2022-07-31T21:18:18.249Z,54.10
2022-07-31T21:20:53.578Z,54.10
2022-07-31T21:23:25.737Z,54.30
2022-07-31T21:25:54.338Z,54.20
2022-07-31T21:28:22.778Z,54.40
2022-07-31T21:30:49.804Z,54.60
2022-07-31T21:33:18.260Z,55.00
2022-07-31T21:35:48.888Z,56.30
2022-07-31T21:38:16.162Z,56.50
2022-07-31T21:40:44.235Z,57.10
2022-07-31T21:43:11.779Z,57.90
2022-07-31T21:45:55.502Z,57.50
2022-07-31T21:48:25.910Z,58.10
2022-07-31T21:50:53.938Z,58.40
2022-07-31T21:53:21.065Z,58.70
2022-07-31T21:55:47.831Z,58.60
2022-07-31T21:58:14.612Z,58.70
2022-07-31T22:00:41.802Z,58.70
2022-07-31T22:03:08.846Z,58.70
2022-07-31T22:05:53.978Z,58.80
2022-07-31T22:08:21.007Z,58.50
2022-07-31T22:10:50.689Z,59.30
2022-07-31T22:13:17.889Z,59.30
2022-07-31T22:15:58.169Z,59.30
2022-07-31T22:18:32.804Z,59.00
2022-07-31T22:21:00.892Z,60.10
2022-07-31T22:23:28.587Z,60.60
2022-07-31T22:25:55.871Z,61.10
2022-07-31T22:28:23.569Z,61.20
2022-07-31T22:30:50.938Z,62.00
2022-07-31T22:33:18.125Z,61.60
2022-07-31T22:35:44.944Z,61.40
2022-07-31T22:38:27.339Z,61.80
2022-07-31T22:40:54.049Z,62.20
2022-07-31T22:44:11.949Z,62.20
2022-07-31T22:46:09.733Z,63.50
2022-07-31T22:48:38.624Z,63.70
2022-07-31T22:51:05.439Z,63.80
2022-07-31T22:53:32.173Z,64.10
2022-07-31T22:55:58.856Z,64.30
2022-07-31T22:58:25.541Z,65.20
2022-07-31T23:00:52.303Z,65.40
2022-07-31T23:03:18.997Z,65.10
2022-07-31T23:06:05.311Z,65.40
2022-07-31T23:08:32.411Z,66.00
2022-07-31T23:10:59.128Z,65.40
2022-07-31T23:13:25.812Z,65.40
2022-07-31T23:15:52.515Z,65.10
2022-07-31T23:18:19.215Z,65.40
2022-07-31T23:20:45.853Z,66.10
2022-07-31T23:23:12.530Z,66.40
2022-07-31T23:25:39.199Z,67.80
2022-07-31T23:28:05.973Z,66.60
2022-07-31T23:30:32.620Z,66.80
2022-07-31T23:32:59.309Z,66.50
2022-07-31T23:35:26.012Z,66.30
2022-07-31T23:37:52.689Z,66.80
2022-07-31T23:40:19.360Z,67.10
2022-07-31T23:42:46.178Z,67.50
2022-07-31T23:45:15.591Z,68.10
2022-07-31T23:47:45.533Z,68.50
2022-07-31T23:50:13.645Z,68.30
2022-07-31T23:52:40.458Z,68.00
2022-07-31T23:55:07.414Z,68.60
2022-07-31T23:57:35.967Z,68.50
